X  Sluiten METAR luchtvaart weer gegevens      EHGG Eelde Airport
Temperatuur
19°C Temperatuur
16°C Dauwpunt
83% Vochtigheid



Wind
5 KM/U
3 MPH
1 M/S
3 KTS



170°
Zuid
Huidig weer

Motregen Motregen
Luchtdruk 1008.92 (hPa) - 29.79 (inHg)
Zicht 6.2 (mijl) - 10 (km)
Vliegveld
Vliegveld code EHGG

Locatie : Eelde Airport
Afstand: 32 (km)

Metar:
EHGG 271925Z AUTO 17003KT 130V230 9999 DZ FEW015CB BKN029 OVC033 19/16 Q1009 TEMPO 6000 SHRA FEW030CB

Tijd: 27-07-2021 21:25 CEST